createdAt,value
2018-02-17T00:02:15.525Z,20.23
2018-02-17T00:08:20.435Z,19.17
2018-02-17T00:14:25.019Z,18.53
2018-02-17T00:20:29.579Z,19.07
2018-02-17T00:26:34.101Z,20.23
2018-02-17T00:32:38.643Z,22.10
2018-02-17T00:38:43.155Z,20.07
2018-02-17T00:44:47.646Z,22.33
2018-02-17T00:50:52.376Z,21.10
2018-02-17T00:56:56.862Z,21.17
2018-02-17T01:03:01.356Z,21.30
2018-02-17T01:09:05.875Z,22.60
2018-02-17T01:15:10.403Z,22.17
2018-02-17T01:21:14.994Z,22.13
2018-02-17T01:27:20.020Z,21.00
2018-02-17T01:33:25.195Z,21.20
2018-02-17T01:39:29.692Z,20.47
2018-02-17T01:45:35.687Z,18.30
2018-02-17T01:51:40.219Z,16.90
2018-02-17T01:57:45.638Z,16.80
2018-02-17T02:03:50.202Z,16.87
2018-02-17T02:09:54.800Z,18.60
2018-02-17T02:15:59.317Z,17.80
2018-02-17T02:22:03.811Z,16.93
2018-02-17T02:28:08.333Z,17.70
2018-02-17T02:34:13.176Z,18.30
2018-02-17T02:40:17.774Z,19.17
2018-02-17T02:46:22.692Z,21.13
2018-02-17T02:52:27.359Z,19.80
2018-02-17T02:58:31.890Z,20.10
2018-02-17T03:04:36.540Z,21.33
2018-02-17T03:10:41.032Z,22.50
2018-02-17T03:16:45.529Z,20.07
2018-02-17T03:22:50.300Z,23.40
2018-02-17T03:28:55.656Z,20.83
2018-02-17T03:35:00.303Z,27.70
2018-02-17T03:41:04.787Z,23.90
2018-02-17T03:47:09.353Z,22.40
2018-02-17T03:53:13.854Z,22.70
2018-02-17T03:59:19.177Z,21.10
2018-02-17T04:05:24.103Z,22.90
2018-02-17T04:11:28.627Z,22.57
2018-02-17T04:17:33.961Z,19.90
2018-02-17T04:23:38.694Z,21.83
2018-02-17T04:29:43.234Z,21.07
2018-02-17T04:35:47.882Z,20.00
2018-02-17T04:41:58.731Z,20.73
2018-02-17T04:48:08.866Z,20.10
2018-02-17T04:54:19.047Z,20.27
2018-02-17T05:00:23.945Z,22.47
2018-02-17T05:06:41.218Z,22.30
2018-02-17T05:12:46.731Z,20.50
2018-02-17T05:19:01.283Z,18.50
2018-02-17T05:25:10.667Z,20.37
2018-02-17T05:31:16.176Z,17.70
2018-02-17T05:37:21.743Z,17.87
2018-02-17T05:43:26.396Z,18.10
2018-02-17T05:49:32.404Z,18.10
2018-02-17T05:55:37.304Z,21.30
2018-02-17T06:01:42.205Z,18.83
2018-02-17T06:07:46.810Z,21.43
2018-02-17T06:13:52.595Z,20.50
2018-02-17T06:19:57.318Z,21.60
2018-02-17T06:26:02.220Z,19.00
2018-02-17T06:32:06.751Z,24.00
2018-02-17T06:38:11.430Z,20.20
2018-02-17T06:44:15.907Z,19.70
2018-02-17T06:50:20.492Z,16.63
2018-02-17T06:56:25.192Z,19.33
2018-02-17T07:02:30.511Z,22.17
2018-02-17T07:08:35.023Z,21.83
2018-02-17T07:14:39.523Z,21.70
2018-02-17T07:20:44.787Z,20.37
2018-02-17T07:26:49.642Z,22.37
2018-02-17T07:32:54.242Z,21.67
2018-02-17T07:38:59.551Z,21.03
2018-02-17T07:45:04.125Z,22.27
2018-02-17T07:51:08.657Z,21.80
2018-02-17T07:57:13.886Z,27.50
2018-02-17T08:03:18.404Z,27.10
2018-02-17T08:09:23.940Z,31.37
2018-02-17T08:15:28.588Z,29.13
2018-02-17T08:21:33.140Z,31.97
2018-02-17T08:27:37.675Z,28.03
2018-02-17T08:33:42.910Z,30.00
2018-02-17T08:39:47.579Z,24.30
2018-02-17T08:45:52.100Z,36.60
2018-02-17T08:51:56.634Z,37.10
2018-02-17T08:58:01.098Z,28.67
2018-02-17T09:04:05.667Z,26.43
2018-02-17T09:10:10.133Z,24.33
2018-02-17T09:16:15.614Z,21.63
2018-02-17T09:22:22.090Z,28.17
2018-02-17T09:28:26.701Z,25.60
2018-02-17T09:34:31.193Z,25.70
2018-02-17T09:40:35.862Z,25.83
2018-02-17T09:46:40.404Z,24.10
2018-02-17T09:52:44.887Z,21.97
2018-02-17T09:58:49.724Z,26.43
2018-02-17T10:04:54.643Z,24.47
2018-02-17T10:11:00.175Z,26.10
2018-02-17T10:17:04.897Z,25.97
2018-02-17T10:23:10.152Z,23.37
2018-02-17T10:29:14.680Z,22.33
2018-02-17T10:35:19.680Z,20.90
2018-02-17T10:41:24.179Z,20.37
2018-02-17T10:47:28.765Z,26.53
2018-02-17T10:53:33.249Z,23.07
2018-02-17T10:59:37.736Z,22.93
2018-02-17T11:05:42.242Z,25.63
2018-02-17T11:11:46.700Z,25.60
2018-02-17T11:17:51.803Z,20.97
2018-02-17T11:23:56.420Z,23.50
2018-02-17T11:30:00.921Z,20.40
2018-02-17T11:36:05.448Z,19.80
2018-02-17T11:42:10.012Z,22.13
2018-02-17T11:48:15.301Z,21.40
2018-02-17T11:54:20.062Z,20.53
2018-02-17T12:00:24.935Z,20.80
2018-02-17T12:06:29.428Z,21.10
2018-02-17T12:12:33.992Z,20.70
2018-02-17T12:18:38.524Z,22.77
2018-02-17T12:24:43.124Z,25.50
2018-02-17T12:30:48.450Z,26.70
2018-02-17T12:36:53.153Z,22.50
2018-02-17T12:42:57.827Z,24.23
2018-02-17T12:49:02.349Z,26.10
2018-02-17T12:55:07.003Z,23.40
2018-02-17T13:01:12.329Z,27.30
2018-02-17T13:07:16.803Z,23.83
2018-02-17T13:13:21.319Z,25.53
2018-02-17T13:19:25.796Z,22.90
2018-02-17T13:25:30.598Z,27.10
2018-02-17T13:31:35.163Z,32.60
2018-02-17T13:37:39.691Z,28.77
2018-02-17T13:43:44.179Z,31.00
2018-02-17T13:49:48.708Z,26.07
2018-02-17T13:55:53.468Z,28.03
2018-02-17T14:01:58.072Z,26.43
2018-02-17T14:08:02.691Z,29.27
2018-02-17T14:14:07.167Z,30.67
2018-02-17T14:20:11.655Z,25.23
2018-02-17T14:26:16.220Z,32.30
2018-02-17T14:32:20.834Z,29.60
2018-02-17T14:38:26.095Z,28.83
2018-02-17T14:44:30.667Z,30.40
2018-02-17T14:50:35.196Z,26.00
2018-02-17T14:56:39.719Z,25.53
2018-02-17T15:02:44.220Z,26.10
2018-02-17T15:08:49.843Z,28.27
2018-02-17T15:14:54.619Z,26.80
2018-02-17T15:20:59.140Z,28.43
2018-02-17T15:27:04.368Z,27.40
2018-02-17T15:33:08.895Z,28.37
2018-02-17T15:39:13.504Z,26.47
2018-02-17T15:45:18.014Z,27.47
2018-02-17T16:04:24.090Z,21.70
2018-02-17T16:10:28.796Z,21.47
2018-02-17T16:16:33.318Z,22.80
2018-02-17T16:22:37.827Z,22.17
2018-02-17T16:28:42.430Z,20.53
2018-02-17T16:34:47.832Z,18.50
2018-02-17T16:40:52.498Z,15.90
2018-02-17T16:46:57.780Z,16.10
2018-02-17T16:53:02.354Z,16.03
2018-02-17T16:59:06.855Z,16.00
2018-02-17T17:05:11.358Z,22.17
2018-02-17T17:11:16.161Z,22.80
2018-02-17T17:17:20.796Z,12.43
2018-02-17T17:23:25.470Z,13.03
2018-02-17T17:29:30.181Z,9.73
2018-02-17T17:35:34.942Z,12.77
2018-02-17T17:41:39.393Z,14.30
2018-02-17T17:47:43.916Z,12.90
2018-02-17T17:53:49.162Z,12.13
2018-02-17T17:59:53.739Z,9.60
2018-02-17T18:05:58.218Z,7.90
2018-02-17T18:12:02.770Z,7.47
2018-02-17T18:18:08.148Z,6.70
2018-02-17T18:24:12.680Z,7.97
2018-02-17T18:30:17.180Z,7.17
2018-02-17T18:36:22.461Z,6.97
2018-02-17T18:42:26.951Z,4.80
2018-02-17T18:48:32.187Z,6.87
2018-02-17T18:54:36.677Z,6.33
2018-02-17T19:00:41.149Z,5.13
2018-02-17T19:06:45.870Z,4.73
2018-02-17T19:12:50.888Z,5.73
2018-02-17T19:18:55.404Z,5.83
2018-02-17T19:25:00.750Z,5.40
2018-02-17T19:31:05.230Z,4.67
2018-02-17T19:37:09.709Z,4.73
2018-02-17T19:43:14.439Z,6.43
2018-02-17T19:49:19.358Z,6.30
2018-02-17T19:55:24.163Z,5.00
2018-02-17T20:01:28.667Z,9.77
2018-02-17T20:07:33.149Z,4.83
2018-02-17T20:13:37.716Z,5.13
2018-02-17T20:19:42.949Z,6.30
2018-02-17T20:25:47.416Z,5.03
2018-02-17T20:31:52.743Z,5.40
2018-02-17T20:37:57.269Z,7.17
2018-02-17T20:44:01.699Z,5.37
2018-02-17T20:50:06.265Z,5.83
2018-02-17T20:56:10.906Z,6.17
2018-02-17T21:02:15.396Z,3.90
2018-02-17T21:08:20.199Z,4.90
2018-02-17T21:14:24.993Z,4.47
2018-02-17T21:20:29.498Z,4.03
2018-02-17T21:26:34.001Z,3.40
2018-02-17T21:32:38.520Z,3.50
2018-02-17T21:38:43.029Z,4.30
2018-02-17T21:44:48.418Z,4.00
2018-02-17T21:50:53.892Z,4.23
2018-02-17T21:56:58.378Z,3.90
2018-02-17T22:03:03.086Z,4.10
2018-02-17T22:09:07.693Z,5.10
2018-02-17T22:15:12.231Z,3.73
2018-02-17T22:21:16.728Z,5.13
2018-02-17T22:27:21.683Z,4.27
2018-02-17T22:33:26.213Z,3.73
2018-02-17T22:39:30.682Z,3.67
2018-02-17T22:45:35.984Z,3.00
2018-02-17T22:51:41.302Z,3.10
2018-02-17T22:57:46.642Z,3.77
2018-02-17T23:03:51.132Z,3.40
2018-02-17T23:09:55.624Z,2.50
2018-02-17T23:16:00.267Z,2.60
2018-02-17T23:22:04.765Z,2.70
2018-02-17T23:28:10.052Z,2.43
2018-02-17T23:34:14.569Z,2.73
2018-02-17T23:40:19.035Z,2.97
2018-02-17T23:46:24.324Z,2.87
2018-02-17T23:52:29.600Z,1.87
2018-02-17T23:58:34.115Z,2.67
